Mounds View, Minnesota
Current Conditions -  °F | °C
As of 1:45 PM on Thursday 30 Oct 2014 (Local Time) from KANE Reporting Station
Overcast Overcast  
Wind Chill: 42°   Ceiling: 5000
Heat Index: 46°   Visibility: 10mi
Dew Point: 37°   Wind: 9mph
Humidity: 71%   Direction: 320°NW
Pressure: 30.1"   Gusts: NA
Location:  45.0755°N, 93.1911°W
Report Text: KANE 301845Z 32008KT 10SM BKN050 OVC075 08/03 A3010
Loading
Personal Weather Stations






























Interactive Weather Map
Tropical Storm Tracking
New forecast layout! Learn more

10-Day Weather Forecast

Advertisements
Track Severe Weather on mobile